Stations météo

réclame
Mon MeteoGroup
Aix en Provence, France (7654): Température de l'air & dewpoint: 12.01.2019 12:00:00 - 18.01.2019 12:00:00 (CET)Aix en Provence, France (7654): Vitesse du vent & gusts: 12.01.2019 12:00:00 - 18.01.2019 12:00:00 (CET)Aix en Provence, France (7654): Direction du vent: 12.01.2019 12:00:00 - 18.01.2019 12:00:00 (CET)Aix en Provence, France (7654): Quantités de précipitations: 12.01.2019 12:00:00 - 18.01.2019 12:00:00 (CET)
Date & Time tt [°C] td [°C] ff [km/h] ff [knt] fx [km/h] fx [knt] dd rr [mm]
18.01.2019 12:00:00 8,2 -3,7 16 9 46 25 NW 0,0
18.01.2019 11:00:00 7,9 -2,7 22 12 41 22 NW 0,0
18.01.2019 10:00:00 6,0 0,1 16 9 29 16 W 0,2
18.01.2019 09:00:00 4,3 -0,3 5 3 18 10 N 0,0
18.01.2019 08:00:00 3,3 -0,2 8 4 21 11 WNW 0,0
18.01.2019 07:00:00 3,0 -0,1 9 5 21 11 WNW -
18.01.2019 06:00:00 2,9 -0,2 8 4 26 14 W 0,0
18.01.2019 05:00:00 3,8 -0,4 9 5 28 15 NW 0,0
18.01.2019 04:00:00 3,6 -0,4 8 4 22 12 NW 0,0
18.01.2019 03:00:00 3,9 -0,7 4 2 18 10 WSW 0,0
18.01.2019 02:00:00 2,2 0,4 8 4 15 8 W 0,0
18.01.2019 01:00:00 3,2 0,6 0 0 16 9 N -
18.01.2019 00:00:00 4,8 1,8 5 3 16 9 WNW 0,0
17.01.2019 23:00:00 5,7 2,7 8 4 21 11 NW 0,0
17.01.2019 22:00:00 5,5 4,5 8 4 13 7 NW 0,0
17.01.2019 21:00:00 5,4 4,5 2 1 8 4 NNW 0,0
17.01.2019 20:00:00 5,0 4,0 2 1 5 3 N 0,0
17.01.2019 19:00:00 6,6 4,9 0 0 9 5 N -
17.01.2019 18:00:00 9,4 6,5 4 2 16 9 W 0,0
17.01.2019 17:00:00 10,4 7,6 5 3 21 11 W 0,0
17.01.2019 16:00:00 10,6 7,3 15 8 28 15 WSW 0,0
17.01.2019 15:00:00 12,2 7,9 9 5 21 11 SW 0,0
17.01.2019 14:00:00 11,7 7,4 8 4 16 9 W 0,0
17.01.2019 13:00:00 12,8 8,1 4 2 9 5 WSW -
17.01.2019 12:00:00 9,5 7,9 4 2 9 5 W 0,0
17.01.2019 11:00:00 8,7 7,8 0 0 18 10 N 0,0
17.01.2019 10:00:00 8,2 7,4 0 0 5 3 N 0,0
17.01.2019 09:00:00 7,8 6,9 0 0 11 6 N 0,0
17.01.2019 08:00:00 7,9 7,0 4 2 8 4 NE 0,0
17.01.2019 07:00:00 8,0 7,1 0 0 8 4 N -
17.01.2019 06:00:00 8,2 7,3 2 1 8 4 NW 0,0
17.01.2019 05:00:00 8,0 6,9 4 2 13 7 ENE 1,0
17.01.2019 04:00:00 8,1 6,7 4 2 13 7 SE 0,4
17.01.2019 03:00:00 8,4 6,5 5 3 13 7 E 2,0
17.01.2019 02:00:00 8,9 5,8 2 1 13 7 ESE 0,0
17.01.2019 01:00:00 9,6 5,6 8 4 18 10 ESE -
17.01.2019 00:00:00 10,4 4,7 11 6 22 12 ESE 0,0
16.01.2019 23:00:00 10,4 5,2 9 5 22 12 E 0,0
16.01.2019 22:00:00 10,4 5,4 8 4 21 11 E 0,0
16.01.2019 21:00:00 10,2 5,6 5 3 13 7 SSE 0,0
16.01.2019 20:00:00 10,3 5,1 4 2 11 6 SE 0,0
16.01.2019 19:00:00 10,3 4,6 2 1 13 7 E -
16.01.2019 18:00:00 10,4 5,2 5 3 13 7 E 0,0
16.01.2019 17:00:00 11,6 6,1 9 5 26 14 S 0,0
16.01.2019 16:00:00 13,4 6,3 11 6 22 12 S 0,0
16.01.2019 15:00:00 13,1 6,7 8 4 16 9 SE 0,0
16.01.2019 14:00:00 12,3 5,9 9 5 18 10 SE 0,0
16.01.2019 13:00:00 13,1 6,7 9 5 24 13 SE -
16.01.2019 12:00:00 12,5 6,3 11 6 18 10 ESE 0,0
16.01.2019 11:00:00 10,6 5,4 5 3 9 5 E 0,0
16.01.2019 10:00:00 7,0 2,5 4 2 9 5 SSE 0,2
16.01.2019 09:00:00 1,1 0,1 0 0 2 1 N 0,0
16.01.2019 08:00:00 -0,3 -1,3 0 0 4 2 N 0,0
16.01.2019 07:00:00 0,1 -1,0 0 0 11 6 N -
16.01.2019 06:00:00 -0,9 -2,5 0 0 4 2 N 0,0
16.01.2019 05:00:00 -0,4 -2,3 0 0 5 3 N 0,0
16.01.2019 04:00:00 -0,3 -2,7 2 1 9 5 NE 0,0
16.01.2019 03:00:00 -0,1 -2,6 2 1 8 4 E 0,0
16.01.2019 02:00:00 -0,3 -2,2 0 0 5 3 N 0,0
16.01.2019 01:00:00 -0,1 -1,5 0 0 8 4 N -
16.01.2019 00:00:00 0,6 -1,3 0 0 8 4 N 0,0
15.01.2019 23:00:00 1,7 -0,6 0 0 8 4 N 0,0
15.01.2019 22:00:00 1,2 -0,9 0 0 4 2 N 0,0
15.01.2019 21:00:00 2,4 -0,5 0 0 4 2 N 0,0
15.01.2019 20:00:00 4,2 0,2 2 1 5 3 N 0,0
15.01.2019 19:00:00 5,8 0,5 2 1 5 3 SW -
15.01.2019 18:00:00 8,1 0,3 0 0 9 5 N 0,0
15.01.2019 17:00:00 11,4 0,5 8 4 15 8 NW 0,0
15.01.2019 16:00:00 14,1 -0,4 8 4 13 7 WSW 0,0
15.01.2019 15:00:00 14,7 -1,8 4 2 11 6 SW 0,0
15.01.2019 14:00:00 14,2 -2,3 4 2 9 5 S 0,0
15.01.2019 13:00:00 12,5 -1,8 5 3 15 8 S -
15.01.2019 12:00:00 11,4 -2,4 9 5 16 9 N 0,0
15.01.2019 11:00:00 9,8 -1,0 4 2 13 7 NNE 0,0
15.01.2019 10:00:00 6,3 0,4 2 1 5 3 S 0,0
15.01.2019 09:00:00 0,9 -0,9 0 0 4 2 N 0,0
15.01.2019 08:00:00 -0,2 -1,9 2 1 5 3 N 0,0
15.01.2019 07:00:00 -0,3 -1,9 4 2 8 4 NE -
15.01.2019 06:00:00 0,3 -1,8 0 0 5 3 N 0,0
15.01.2019 05:00:00 1,7 -0,9 2 1 8 4 ENE 0,0
15.01.2019 04:00:00 3,3 -0,3 5 3 11 6 WNW 0,0
15.01.2019 03:00:00 4,3 -0,9 0 0 18 10 N 0,0
15.01.2019 02:00:00 6,2 -0,5 4 2 22 12 WSW 0,0
15.01.2019 01:00:00 7,0 -0,7 11 6 22 12 WNW -
15.01.2019 00:00:00 7,4 -0,3 11 6 28 15 NNW 0,0
14.01.2019 23:00:00 7,2 0,4 11 6 34 18 SW 0,0
14.01.2019 22:00:00 7,9 -0,3 16 9 44 24 NW 0,0
14.01.2019 21:00:00 7,6 0,3 26 14 48 26 NW 0,0
14.01.2019 20:00:00 7,9 0,1 18 10 44 24 WNW 0,0
14.01.2019 19:00:00 9,0 -1,2 22 12 50 27 WNW -
14.01.2019 18:00:00 10,1 -1,9 21 11 44 24 WNW 0,0
14.01.2019 17:00:00 11,3 -3,3 18 10 44 24 W 0,0
14.01.2019 16:00:00 12,6 -2,5 21 11 44 24 W 0,0
14.01.2019 15:00:00 13,0 0,0 21 11 57 31 NW 0,0
14.01.2019 14:00:00 14,2 2,1 21 11 74 40 NW 0,0
14.01.2019 13:00:00 14,0 1,6 28 15 76 41 NW -
14.01.2019 12:00:00 13,2 2,1 22 12 70 38 NW 0,0
14.01.2019 11:00:00 12,3 3,0 29 16 67 36 NW 0,0
14.01.2019 10:00:00 11,7 2,2 28 15 65 35 NW 0,0
14.01.2019 09:00:00 10,3 2,9 22 12 54 29 NW 0,0
14.01.2019 08:00:00 10,3 3,6 18 10 42 23 NW 0,0
14.01.2019 07:00:00 10,7 3,7 21 11 57 31 WNW -
14.01.2019 06:00:00 9,9 4,1 13 7 34 18 WNW 0,0
14.01.2019 05:00:00 9,8 4,4 18 10 39 21 W 0,0
14.01.2019 04:00:00 9,2 4,8 15 8 29 16 W 0,0
14.01.2019 03:00:00 9,1 5,1 11 6 26 14 NW 0,0
14.01.2019 02:00:00 9,7 5,1 11 6 35 19 NW 0,0
14.01.2019 01:00:00 10,6 5,1 18 10 41 22 NW -
14.01.2019 00:00:00 10,4 5,4 21 11 46 25 NW 0,0
13.01.2019 23:00:00 10,8 5,5 26 14 59 32 WNW 0,0
13.01.2019 22:00:00 11,3 5,6 29 16 65 35 WNW 0,0
13.01.2019 21:00:00 11,7 5,3 34 18 61 33 NW 0,0
13.01.2019 20:00:00 11,8 5,4 26 14 59 32 NW 0,0
13.01.2019 19:00:00 11,2 5,3 24 13 52 28 NW -
13.01.2019 18:00:00 11,6 5,2 26 14 55 30 NW 0,0
13.01.2019 17:00:00 11,4 4,8 22 12 50 27 WNW 0,0
13.01.2019 16:00:00 11,7 4,9 28 15 61 33 WNW 0,0
13.01.2019 15:00:00 11,6 4,6 22 12 54 29 WNW 0,0
13.01.2019 14:00:00 11,6 4,3 22 12 67 36 WNW 0,0
13.01.2019 13:00:00 11,1 4,1 24 13 61 33 WNW -
13.01.2019 12:00:00 10,5 3,7 24 13 57 31 WNW 0,0
13.01.2019 11:00:00 9,5 3,5 24 13 50 27 WNW 0,0
13.01.2019 10:00:00 9,1 2,9 22 12 50 27 WNW 0,0
13.01.2019 09:00:00 8,6 2,8 18 10 48 26 WNW 0,0
13.01.2019 08:00:00 8,3 2,7 16 9 39 21 WNW 0,0
13.01.2019 07:00:00 7,6 2,5 15 8 44 24 WNW -
13.01.2019 06:00:00 7,7 2,6 22 12 46 25 WNW 0,0
13.01.2019 05:00:00 7,2 2,1 15 8 44 24 NW 0,0
13.01.2019 04:00:00 7,2 1,7 22 12 52 28 WNW 0,0
13.01.2019 03:00:00 7,4 1,5 18 10 41 22 NW 0,0
13.01.2019 02:00:00 6,5 0,6 15 8 55 30 W 0,0
13.01.2019 01:00:00 6,7 0,1 18 10 39 21 NW -
13.01.2019 00:00:00 5,6 -0,5 13 7 29 16 W 0,0
12.01.2019 23:00:00 5,2 -0,8 8 4 24 13 WNW 0,0
12.01.2019 22:00:00 4,8 -1,4 8 4 16 9 WNW 0,0
12.01.2019 21:00:00 5,0 -1,3 5 3 22 12 WNW 0,0
12.01.2019 20:00:00 4,9 -1,1 5 3 11 6 S 0,0
12.01.2019 19:00:00 5,4 -0,7 4 2 13 7 W -
12.01.2019 18:00:00 6,4 -0,1 0 0 13 7 N 0,0
12.01.2019 17:00:00 9,2 0,6 8 4 24 13 W 0,0
12.01.2019 16:00:00 11,8 0,5 8 4 18 10 WNW 0,0
12.01.2019 15:00:00 11,7 0,4 9 5 21 11 NW 0,0
12.01.2019 14:00:00 11,0 0,7 9 5 21 11 NW 0,0
12.01.2019 13:00:00 9,4 0,0 4 2 9 5 W -
12.01.2019 12:00:00 6,7 -2,7 2 1 8 4 SSW 0,0

tt = Température de l'air
td = dewpoint
ff = Vitesse du vent
fx = gusts
dd = Direction du vent
rr = Quantités de précipitations

stations d'obs. à proximité